Time;durP1;ratioP1;P1;durP2;ratioP2;P2;SDS_P1;SDS_P2;PMS_P1;PMS_P2;Temp;Humidity;BMP_temperature;BMP_pressure;BME280_temperature;BME280_humidity;BME280_pressure;Samples;Min_cycle;Max_cycle;Signal;HPM_P1;HPM_P2
2023/11/07 00:02:06;;;;;;;;;;;;;;;8.16;100.00;99733.09;5011547;28;19941;-85
2023/11/07 00:04:35;;;;;;;;;;;;;;;8.07;100.00;99740.25;4994202;28;19925;-80
2023/11/07 00:07:04;;;;;;;;;;;;;;;8.16;100.00;99743.13;4995265;28;20519;-84
2023/11/07 00:09:32;;;;;;;;;;;;;;;8.13;100.00;99751.84;5011962;28;19926;-83
2023/11/07 00:12:06;;;;;;;;;;;;;;;8.13;100.00;99749.13;5006939;28;19925;-84
2023/11/07 00:14:34;;;;;;;;;;;;;;;8.10;100.00;99753.22;5010394;28;19928;-86
2023/11/07 00:17:02;;;;;;;;;;;;;;;8.17;100.00;99750.16;5004273;28;19922;-83
2023/11/07 00:19:36;;;;;;;;;;;;;;;8.12;100.00;99755.63;5009643;28;19932;-84
2023/11/07 00:22:04;;;;;;;;;;;;;;;8.13;100.00;99760.78;5007757;28;19921;-83
2023/11/07 00:24:32;;;;;;;;;;;;;;;8.09;100.00;99757.03;5011474;28;19921;-85
2023/11/07 00:27:06;;;;;;;;;;;;;;;8.09;100.00;99757.03;5011101;28;19957;-82
2023/11/07 00:29:35;;;;;;;;;;;;;;;8.12;100.00;99761.06;5012473;28;20298;-83
2023/11/07 00:32:07;;;;;;;;;;;;;;;8.08;100.00;99771.66;5011314;28;19927;-82
2023/11/07 00:34:37;;;;;;;;;;;;;;;8.06;100.00;99770.34;5013227;28;19921;-84
2023/11/07 00:37:05;;;;;;;;;;;;;;;8.11;100.00;99765.66;5012979;28;19921;-83
2023/11/07 00:39:36;;;;;;;;;;;;;;;8.04;100.00;99767.91;4986465;28;19926;-82
2023/11/07 00:42:05;;;;;;;;;;;;;;;8.08;100.00;99776.25;5007058;28;19926;-83
2023/11/07 00:44:33;;;;;;;;;;;;;;;8.08;100.00;99777.09;5010776;28;20267;-82
2023/11/07 00:47:01;;;;;;;;;;;;;;;8.09;100.00;99783.31;4991166;28;19932;-84
2023/11/07 00:49:29;;;;;;;;;;;;;;;8.10;100.00;99780.31;5009510;28;19921;-83
2023/11/07 00:52:03;;;;;;;;;;;;;;;7.99;100.00;99781.50;5005863;28;19921;-86
2023/11/07 00:54:31;;;;;;;;;;;;;;;8.06;100.00;99797.44;4993698;28;19921;-85
2023/11/07 00:56:59;;;;;;;;;;;;;;;8.10;100.00;99793.84;5011118;28;19921;-82
2023/11/07 00:59:27;;;;;;;;;;;;;;;8.04;100.00;99805.84;5008588;28;19926;-84
2023/11/07 01:02:00;;;;;;;;;;;;;;;8.07;100.00;99799.84;4991851;28;20001;-84
2023/11/07 01:04:28;;;;;;;;;;;;;;;8.07;100.00;99805.28;5009705;28;19925;-84
2023/11/07 01:06:56;;;;;;;;;;;;;;;8.06;100.00;99808.28;4987507;28;20285;-85
2023/11/07 01:09:25;;;;;;;;;;;;;;;8.08;100.00;99806.06;5010713;28;19925;-83
2023/11/07 01:11:53;;;;;;;;;;;;;;;8.04;100.00;99797.72;5003765;28;19925;-85
2023/11/07 01:14:26;;;;;;;;;;;;;;;8.11;100.00;99794.69;5010799;28;19921;-82
2023/11/07 01:16:54;;;;;;;;;;;;;;;8.07;100.00;99799.06;5010180;28;19985;-83
2023/11/07 01:19:22;;;;;;;;;;;;;;;8.07;100.00;99799.06;5011713;28;19937;-81
2023/11/07 01:21:50;;;;;;;;;;;;;;;8.05;100.00;99804.75;5011192;28;19929;-81
2023/11/07 01:24:18;;;;;;;;;;;;;;;8.05;100.00;99798.53;5011223;28;19937;-81
2023/11/07 01:26:47;;;;;;;;;;;;;;;8.02;100.00;99808.03;5010979;28;19940;-83
2023/11/07 01:29:17;;;;;;;;;;;;;;;7.94;100.00;99816.75;5011507;28;19921;-87
2023/11/07 01:31:46;;;;;;;;;;;;;;;7.95;100.00;99812.97;4994257;28;19922;-84
2023/11/07 01:34:14;;;;;;;;;;;;;;;7.91;100.00;99814.63;5012046;28;19922;-82
2023/11/07 01:36:42;;;;;;;;;;;;;;;7.83;100.00;99818.75;5016055;28;20401;-82
2023/11/07 01:39:10;;;;;;;;;;;;;;;7.77;100.00;99812.53;5015749;28;20398;-83
2023/11/07 01:41:39;;;;;;;;;;;;;;;7.69;100.00;99815.84;5011512;28;19929;-85
2023/11/07 01:44:13;;;;;;;;;;;;;;;7.71;100.00;99826.44;5015291;28;19925;-81
2023/11/07 01:46:41;;;;;;;;;;;;;;;7.68;100.00;99825.09;4989698;28;19932;-85
2023/11/07 01:49:09;;;;;;;;;;;;;;;7.82;100.00;99834.19;4995271;28;20298;-82
2023/11/07 01:51:42;;;;;;;;;;;;;;;7.88;100.00;99828.75;5010095;28;19922;-83
2023/11/07 01:54:10;;;;;;;;;;;;;;;7.83;100.00;99826.88;5015521;28;19929;-84
2023/11/07 01:56:43;;;;;;;;;;;;;;;7.95;100.00;99835.44;5014637;28;19922;-82
2023/11/07 01:59:11;;;;;;;;;;;;;;;7.83;100.00;99824.19;5013032;28;19997;-83
2023/11/07 02:01:41;;;;;;;;;;;;;;;7.89;100.00;99827.66;4986765;28;20394;-81
2023/11/07 02:04:14;;;;;;;;;;;;;;;7.83;100.00;99833.09;4996800;28;19929;-82
2023/11/07 02:06:47;;;;;;;;;;;;;;;7.87;100.00;99829.81;5013996;28;19921;-83
2023/11/07 02:09:15;;;;;;;;;;;;;;;7.90;100.00;99837.38;5013861;28;20293;-82
2023/11/07 02:11:43;;;;;;;;;;;;;;;7.98;100.00;99839.47;5013014;28;19944;-81
2023/11/07 02:14:25;;;;;;;;;;;;;;;7.95;100.00;99842.75;5002069;28;19929;-86
2023/11/07 02:17:00;;;;;;;;;;;;;;;7.92;100.00;99835.22;5012796;28;19932;-81
2023/11/07 02:19:33;;;;;;;;;;;;;;;8.00;100.00;99838.13;5006741;28;19929;-83
2023/11/07 02:22:09;;;;;;;;;;;;;;;7.98;100.00;99836.78;5013587;28;19932;-83
2023/11/07 02:24:39;;;;;;;;;;;;;;;7.98;100.00;99834.88;5008463;28;19921;-82
2023/11/07 02:27:07;;;;;;;;;;;;;;;7.96;100.00;99834.34;5009226;28;19925;-84
2023/11/07 02:29:34;;;;;;;;;;;;;;;8.04;100.00;99832.13;5007207;28;19929;-84
2023/11/07 02:32:03;;;;;;;;;;;;;;;8.03;100.00;99835.94;4996320;28;19932;-85
2023/11/07 02:34:36;;;;;;;;;;;;;;;8.07;100.00;99837.78;5013642;28;19922;-82
2023/11/07 02:37:04;;;;;;;;;;;;;;;8.03;100.00;99842.16;5013222;28;19925;-86
2023/11/07 02:39:33;;;;;;;;;;;;;;;8.02;100.00;99837.03;4994857;28;19925;-88
2023/11/07 02:42:07;;;;;;;;;;;;;;;8.07;100.00;99840.50;5008965;28;19921;-84
2023/11/07 02:44:41;;;;;;;;;;;;;;;8.07;100.00;99839.69;4986834;28;19921;-82
2023/11/07 02:47:14;;;;;;;;;;;;;;;8.08;100.00;99850.25;4990842;28;19921;-82
2023/11/07 02:49:42;;;;;;;;;;;;;;;8.07;100.00;99845.91;5011726;28;19925;-85
2023/11/07 02:52:10;;;;;;;;;;;;;;;8.13;100.00;99850.22;5000064;28;20298;-83
2023/11/07 02:54:38;;;;;;;;;;;;;;;8.15;100.00;99856.16;5011424;28;20306;-82
2023/11/07 02:57:07;;;;;;;;;;;;;;;8.14;100.00;99857.25;5014737;28;19922;-84
2023/11/07 02:59:35;;;;;;;;;;;;;;;8.11;100.00;99857.00;5009992;28;19922;-85
2023/11/07 03:02:04;;;;;;;;;;;;;;;8.09;100.00;99861.91;5012636;28;19928;-83
2023/11/07 03:04:38;;;;;;;;;;;;;;;8.09;100.00;99859.19;5013018;28;19933;-82
2023/11/07 03:07:12;;;;;;;;;;;;;;;8.05;100.00;99864.38;5008976;28;19929;-85
2023/11/07 03:09:40;;;;;;;;;;;;;;;8.12;100.00;99866.75;5010734;28;19974;-87
2023/11/07 03:12:12;;;;;;;;;;;;;;;8.10;100.00;99860.81;4997508;28;19928;-81
2023/11/07 03:14:45;;;;;;;;;;;;;;;8.06;100.00;99859.75;5011526;28;19922;-81
2023/11/07 03:17:13;;;;;;;;;;;;;;;8.04;100.00;99859.22;4995793;28;19928;-82
2023/11/07 03:19:41;;;;;;;;;;;;;;;8.04;100.00;99860.03;5012905;28;19921;-83
2023/11/07 03:22:14;;;;;;;;;;;;;;;8.14;100.00;99868.06;5014300;28;19929;-85
2023/11/07 03:24:42;;;;;;;;;;;;;;;8.09;100.00;99862.72;5012175;28;19921;-82
2023/11/07 03:27:11;;;;;;;;;;;;;;;8.06;100.00;99862.47;4990600;28;19925;-82
2023/11/07 03:29:39;;;;;;;;;;;;;;;8.05;100.00;99856.25;5010380;28;19928;-83
2023/11/07 03:32:07;;;;;;;;;;;;;;;8.05;100.00;99856.25;5007399;28;20310;-83
2023/11/07 03:34:41;;;;;;;;;;;;;;;8.00;100.00;99850.88;5009923;28;19932;-82
2023/11/07 03:37:09;;;;;;;;;;;;;;;7.97;100.00;99862.28;4998029;28;19930;-83
2023/11/07 03:39:42;;;;;;;;;;;;;;;8.00;100.00;99856.28;5009336;28;20298;-82
2023/11/07 03:42:11;;;;;;;;;;;;;;;8.00;100.00;99853.56;5009081;28;19928;-83
2023/11/07 03:44:39;;;;;;;;;;;;;;;7.98;100.00;99853.84;5012333;28;19921;-83
2023/11/07 03:47:07;;;;;;;;;;;;;;;7.98;100.00;99864.69;5012960;28;20370;-84
2023/11/07 03:49:35;;;;;;;;;;;;;;;7.94;100.00;99862.81;5012190;28;20397;-82
2023/11/07 03:52:03;;;;;;;;;;;;;;;8.00;100.00;99859.78;4995778;28;19921;-83
2023/11/07 03:54:31;;;;;;;;;;;;;;;7.92;100.00;99856.88;5012771;28;19925;-86
2023/11/07 03:56:59;;;;;;;;;;;;;;;7.91;100.00;99866.91;5011102;28;19932;-83
2023/11/07 03:59:28;;;;;;;;;;;;;;;8.05;100.00;99875.22;5011379;28;19922;-81
2023/11/07 04:02:03;;;;;;;;;;;;;;;8.03;100.00;99882.00;5012129;28;19932;-82
2023/11/07 04:04:36;;;;;;;;;;;;;;;8.02;100.00;99883.09;5012455;28;19921;-81
2023/11/07 04:07:04;;;;;;;;;;;;;;;8.04;100.00;99881.72;5010940;28;19925;-82
2023/11/07 04:09:37;;;;;;;;;;;;;;;8.03;100.00;99884.72;5011808;28;19928;-84
2023/11/07 04:12:05;;;;;;;;;;;;;;;7.97;100.00;99882.03;4996718;28;19921;-84
2023/11/07 04:14:35;;;;;;;;;;;;;;;8.00;100.00;99883.38;5008116;28;19921;-81
2023/11/07 04:17:04;;;;;;;;;;;;;;;7.95;100.00;99880.69;5010877;28;20301;-81
2023/11/07 04:19:33;;;;;;;;;;;;;;;7.95;100.00;99892.34;5011469;28;19925;-83
2023/11/07 04:22:04;;;;;;;;;;;;;;;7.90;100.00;99892.38;5011162;28;19926;-82
2023/11/07 04:24:37;;;;;;;;;;;;;;;7.93;100.00;99891.81;5010896;28;20401;-82
2023/11/07 04:27:07;;;;;;;;;;;;;;;7.82;100.00;99888.38;5011594;28;19929;-81
2023/11/07 04:29:36;;;;;;;;;;;;;;;7.90;100.00;99889.69;5001885;28;19921;-81
2023/11/07 04:32:09;;;;;;;;;;;;;;;7.87;100.00;99890.25;5011771;28;19921;-86
2023/11/07 04:34:37;;;;;;;;;;;;;;;7.89;100.00;99890.75;5010777;28;19936;-85
2023/11/07 04:37:05;;;;;;;;;;;;;;;7.89;100.00;99882.63;5012796;28;19928;-85
2023/11/07 04:39:38;;;;;;;;;;;;;;;7.89;100.00;99890.75;5011343;28;19928;-82
2023/11/07 04:42:07;;;;;;;;;;;;;;;7.96;100.00;99885.03;5011979;28;19922;-81
2023/11/07 04:44:41;;;;;;;;;;;;;;;7.95;100.00;99881.50;4994562;28;19921;-83
2023/11/07 04:47:09;;;;;;;;;;;;;;;7.94;100.00;99881.78;4986630;28;19930;-81
2023/11/07 04:49:43;;;;;;;;;;;;;;;7.90;100.00;99873.44;5011760;28;19921;-84
2023/11/07 04:52:11;;;;;;;;;;;;;;;7.94;100.00;99882.59;5010656;28;20377;-82
2023/11/07 04:54:44;;;;;;;;;;;;;;;7.93;100.00;99886.41;4998740;28;19928;-83
2023/11/07 04:57:12;;;;;;;;;;;;;;;8.04;100.00;99897.97;5010066;28;19926;-84
2023/11/07 04:59:41;;;;;;;;;;;;;;;7.99;100.00;99889.88;5008224;28;20445;-84
2023/11/07 05:02:10;;;;;;;;;;;;;;;8.05;100.00;99887.94;5011798;28;19921;-82
2023/11/07 05:04:38;;;;;;;;;;;;;;;7.99;100.00;99887.97;4994751;28;19921;-81
2023/11/07 05:07:06;;;;;;;;;;;;;;;8.02;100.00;99892.03;5013109;28;19922;-83
2023/11/07 05:09:39;;;;;;;;;;;;;;;8.03;100.00;99893.66;5011054;28;19921;-83
2023/11/07 05:12:12;;;;;;;;;;;;;;;8.03;100.00;99890.94;5014132;28;19925;-83
2023/11/07 05:14:41;;;;;;;;;;;;;;;8.04;100.00;99895.28;5012836;28;19944;-84
2023/11/07 05:17:09;;;;;;;;;;;;;;;8.02;100.00;99900.16;5015520;28;20289;-82
2023/11/07 05:19:42;;;;;;;;;;;;;;;8.02;100.00;99897.44;5014586;28;19932;-85
2023/11/07 05:22:10;;;;;;;;;;;;;;;8.04;100.00;99897.16;5015159;28;19922;-83
2023/11/07 05:24:38;;;;;;;;;;;;;;;8.08;100.00;99893.63;5014817;28;19928;-82
2023/11/07 05:27:06;;;;;;;;;;;;;;;8.04;100.00;99899.88;5018068;28;20305;-84
2023/11/07 05:29:34;;;;;;;;;;;;;;;8.08;100.00;99895.50;5010483;28;19921;-82
2023/11/07 05:32:04;;;;;;;;;;;;;;;8.09;100.00;99897.13;5014482;28;19921;-86
2023/11/07 05:34:39;;;;;;;;;;;;;;;8.08;100.00;99909.88;4993489;28;19929;-82
2023/11/07 05:37:07;;;;;;;;;;;;;;;8.13;100.00;99898.19;4996284;28;19925;-83
2023/11/07 05:39:44;;;;;;;;;;;;;;;8.11;100.00;99901.19;5010378;28;19929;-83
2023/11/07 05:42:12;;;;;;;;;;;;;;;8.04;100.00;99895.28;5014907;28;19928;-82
2023/11/07 05:44:40;;;;;;;;;;;;;;;8.07;100.00;99902.81;5013633;28;19926;-83
2023/11/07 05:47:09;;;;;;;;;;;;;;;8.17;100.00;99907.38;4992422;28;20423;-84
2023/11/07 05:49:37;;;;;;;;;;;;;;;8.06;100.00;99903.91;5011588;28;20286;-84
2023/11/07 05:52:06;;;;;;;;;;;;;;;8.05;100.00;99905.03;5015629;28;19932;-84
2023/11/07 05:54:33;;;;;;;;;;;;;;;8.04;100.00;99916.13;5012224;28;19925;-82
2023/11/07 05:57:06;;;;;;;;;;;;;;;8.05;100.00;99910.44;5011170;28;19929;-85
2023/11/07 05:59:39;;;;;;;;;;;;;;;8.07;100.00;99910.16;5009027;28;19922;-83
2023/11/07 06:02:10;;;;;;;;;;;;;;;8.05;100.00;99912.31;5013243;28;19928;-84
2023/11/07 06:04:39;;;;;;;;;;;;;;;8.02;100.00;99915.59;5009802;28;19925;-83
2023/11/07 06:07:07;;;;;;;;;;;;;;;8.06;100.00;99911.25;5013273;28;19937;-82
2023/11/07 06:09:40;;;;;;;;;;;;;;;8.08;100.00;99903.63;5012343;28;19925;-82
2023/11/07 06:12:09;;;;;;;;;;;;;;;8.05;100.00;99912.31;5012639;28;19926;-82
2023/11/07 06:14:38;;;;;;;;;;;;;;;8.04;100.00;99916.94;5012181;28;19937;-86
2023/11/07 06:17:05;;;;;;;;;;;;;;;8.08;100.00;99922.59;5011090;28;19929;-85
2023/11/07 06:19:40;;;;;;;;;;;;;;;8.08;100.00;99926.13;4992731;28;19921;-85
2023/11/07 06:22:13;;;;;;;;;;;;;;;8.07;100.00;99923.72;5014440;28;20309;-82
2023/11/07 06:24:41;;;;;;;;;;;;;;;8.09;100.00;99925.06;5015663;28;19948;-83
2023/11/07 06:27:10;;;;;;;;;;;;;;;8.09;100.00;99929.66;5009629;28;19928;-84
2023/11/07 06:29:40;;;;;;;;;;;;;;;8.07;100.00;99934.56;4986737;28;19921;-83
2023/11/07 06:32:09;;;;;;;;;;;;;;;8.08;100.00;99936.97;5015929;28;19921;-82
2023/11/07 06:34:37;;;;;;;;;;;;;;;8.14;100.00;99935.84;5012405;28;20307;-83
2023/11/07 06:37:06;;;;;;;;;;;;;;;8.11;100.00;99938.31;5010466;28;19932;-82
2023/11/07 06:39:34;;;;;;;;;;;;;;;8.14;100.00;99938.53;4996928;28;19925;-82
2023/11/07 06:42:02;;;;;;;;;;;;;;;8.07;100.00;99943.47;4994072;28;19929;-84
2023/11/07 06:44:30;;;;;;;;;;;;;;;8.10;100.00;99945.63;5012043;28;19921;-83
2023/11/07 06:47:03;;;;;;;;;;;;;;;8.11;100.00;99951.88;5009994;28;19928;-84
2023/11/07 06:49:31;;;;;;;;;;;;;;;8.05;100.00;99948.38;5012567;28;19929;-83
2023/11/07 06:51:59;;;;;;;;;;;;;;;8.00;100.00;99948.41;5010202;28;19928;-83
2023/11/07 06:54:34;;;;;;;;;;;;;;;7.99;100.00;99957.63;4996280;28;19921;-83
2023/11/07 06:57:02;;;;;;;;;;;;;;;7.99;100.00;99957.63;5012627;28;19921;-83
2023/11/07 06:59:35;;;;;;;;;;;;;;;8.04;100.00;99964.91;4999145;28;19926;-83
2023/11/07 07:02:08;;;;;;;;;;;;;;;8.06;100.00;99963.53;5015585;28;19929;-82
2023/11/07 07:04:40;;;;;;;;;;;;;;;8.11;100.00;99965.41;5015606;28;19929;-85
2023/11/07 07:07:08;;;;;;;;;;;;;;;8.13;100.00;99965.94;4998442;28;19929;-84
2023/11/07 07:09:43;;;;;;;;;;;;;;;8.11;100.00;99970.84;5017950;28;19922;-83
2023/11/07 07:12:19;;;;;;;;;;;;;;;8.12;100.00;99967.84;5013493;28;19926;-87
2023/11/07 07:14:53;;;;;;;;;;;;;;;8.17;100.00;99973.25;5016624;28;19925;-88
2023/11/07 07:17:22;;;;;;;;;;;;;;;8.23;100.00;99975.91;5015144;28;19921;-83
2023/11/07 07:19:50;;;;;;;;;;;;;;;8.27;100.00;99985.09;5015400;28;19928;-82
2023/11/07 07:22:27;;;;;;;;;;;;;;;8.22;100.00;99980.50;5018141;28;19925;-83
2023/11/07 07:24:59;;;;;;;;;;;;;;;8.28;100.00;99978.56;5014450;28;19933;-85
2023/11/07 07:27:33;;;;;;;;;;;;;;;8.25;100.00;99987.28;5009810;28;19928;-83
2023/11/07 07:30:09;;;;;;;;;;;;;;;8.32;100.00;99993.19;5011651;28;19929;-83
2023/11/07 07:32:41;;;;;;;;;;;;;;;8.26;100.00;99987.00;5014114;28;19929;-84
2023/11/07 07:35:15;;;;;;;;;;;;;;;8.32;100.00;99990.47;5014557;28;19925;-83
2023/11/07 07:37:51;;;;;;;;;;;;;;;8.30;100.00;99990.75;4991011;28;20004;-84
2023/11/07 07:40:25;;;;;;;;;;;;;;;8.33;100.00;99992.91;5012454;28;19925;-83
2023/11/07 07:42:59;;;;;;;;;;;;;;;8.40;100.00;99992.59;5012767;28;19948;-82
2023/11/07 07:45:29;;;;;;;;;;;;;;;8.39;100.00;99996.38;5008351;28;19922;-86
2023/11/07 07:47:57;;;;;;;;;;;;;;;8.41;100.00;99996.09;5010880;28;19926;-83
2023/11/07 07:50:31;;;;;;;;;;;;;;;8.43;100.00;100000.16;4994756;28;19922;-82
2023/11/07 07:53:01;;;;;;;;;;;;;;;8.46;100.00;99996.91;5012877;28;20937;-83
2023/11/07 07:55:36;;;;;;;;;;;;;;;8.47;100.00;99997.72;5011432;28;19928;-80
2023/11/07 07:58:08;;;;;;;;;;;;;;;8.50;100.00;99997.97;5012534;28;19921;-84
2023/11/07 08:00:37;;;;;;;;;;;;;;;8.56;100.00;100006.91;5012141;28;19925;-81
2023/11/07 08:03:12;;;;;;;;;;;;;;;8.56;100.00;100006.06;5018623;28;19925;-82
2023/11/07 08:05:45;;;;;;;;;;;;;;;8.62;100.00;100007.66;4990843;28;19929;-82
2023/11/07 08:08:18;;;;;;;;;;;;;;;8.60;100.00;100015.25;5014782;28;19936;-80
2023/11/07 08:10:57;;;;;;;;;;;;;;;8.58;100.00;100015.53;5013984;28;20526;-83
2023/11/07 08:13:29;;;;;;;;;;;;;;;8.61;100.00;100023.09;5012898;28;19940;-82
2023/11/07 08:16:06;;;;;;;;;;;;;;;8.65;100.00;100020.66;5012565;28;19922;-82
2023/11/07 08:18:34;;;;;;;;;;;;;;;8.65;100.00;100016.03;5012379;28;19929;-84
2023/11/07 08:21:05;;;;;;;;;;;;;;;8.63;100.00;100026.38;5011101;28;19929;-81
2023/11/07 08:23:33;;;;;;;;;;;;;;;8.67;100.00;100027.41;5016807;28;20369;-83
2023/11/07 08:26:03;;;;;;;;;;;;;;;8.67;100.00;100035.56;4992379;28;20374;-82
2023/11/07 08:28:36;;;;;;;;;;;;;;;8.70;100.00;100036.06;5008963;28;19925;-84
2023/11/07 08:31:06;;;;;;;;;;;;;;;8.73;100.00;100028.19;5011555;28;20497;-82
2023/11/07 08:33:37;;;;;;;;;;;;;;;8.76;100.00;100032.22;5016048;28;19921;-82
2023/11/07 08:36:11;;;;;;;;;;;;;;;8.88;100.00;100038.09;5007260;28;19929;-84
2023/11/07 08:38:45;;;;;;;;;;;;;;;8.87;100.00;100032.97;5017064;28;19972;-82
2023/11/07 08:41:20;;;;;;;;;;;;;;;8.91;100.00;100040.25;5009775;28;19932;-84
2023/11/07 08:43:53;;;;;;;;;;;;;;;8.93;100.00;100037.25;5013820;28;19928;-83
2023/11/07 08:46:23;;;;;;;;;;;;;;;8.97;100.00;100036.38;4997533;28;19921;-80
2023/11/07 08:48:56;;;;;;;;;;;;;;;8.97;100.00;100041.00;5009490;28;19922;-81
2023/11/07 08:51:29;;;;;;;;;;;;;;;8.99;100.00;100041.53;5010227;28;19929;-82
2023/11/07 08:53:57;;;;;;;;;;;;;;;9.08;100.00;100044.44;4980624;28;20493;-82
2023/11/07 08:56:26;;;;;;;;;;;;;;;8.97;100.00;100039.09;5001747;28;19929;-82
2023/11/07 08:58:55;;;;;;;;;;;;;;;8.96;100.00;100039.38;4987245;28;19936;-85
2023/11/07 09:01:23;;;;;;;;;;;;;;;9.02;100.00;100047.19;4990196;28;19929;-86
2023/11/07 09:03:51;;;;;;;;;;;;;;;9.02;100.00;100043.69;4992811;28;19951;-83
2023/11/07 09:06:24;;;;;;;;;;;;;;;8.98;100.00;100048.06;4991342;28;19929;-83
2023/11/07 09:08:52;;;;;;;;;;;;;;;9.00;100.00;100049.41;4993740;28;19929;-88
2023/11/07 09:11:26;;;;;;;;;;;;;;;8.91;100.00;100042.13;4989654;28;19929;-88
2023/11/07 09:13:54;;;;;;;;;;;;;;;8.99;100.00;100041.53;4992085;28;19940;-87
2023/11/07 09:16:22;;;;;;;;;;;;;;;8.91;100.00;100051.09;4993714;28;19929;-82
2023/11/07 09:18:50;;;;;;;;;;;;;;;8.93;100.00;100057.03;4986501;28;20270;-88
2023/11/07 09:21:18;;;;;;;;;;;;;;;8.94;100.00;100049.72;4988511;28;19929;-87
2023/11/07 09:23:46;;;;;;;;;;;;;;;8.94;100.00;100049.72;4994306;28;19929;-82
2023/11/07 09:26:14;;;;;;;;;;;;;;;8.96;100.00;100056.50;4992735;28;19929;-88
2023/11/07 09:28:43;;;;;;;;;;;;;;;8.97;100.00;100055.38;4990668;28;19930;-87
2023/11/07 09:31:12;;;;;;;;;;;;;;;8.98;100.00;100057.00;4994480;28;19929;-84
2023/11/07 09:33:40;;;;;;;;;;;;;;;9.02;100.00;100060.78;4999814;28;19929;-84
2023/11/07 09:36:14;;;;;;;;;;;;;;;9.10;100.00;100062.06;4992259;28;19929;-83
2023/11/07 09:38:50;;;;;;;;;;;;;;;9.10;100.00;100066.66;4990028;28;19929;-85
2023/11/07 09:41:18;;;;;;;;;;;;;;;9.12;100.00;100070.72;4985628;28;20412;-86
2023/11/07 09:43:47;;;;;;;;;;;;;;;9.13;100.00;100057.97;4973615;28;19975;-83
2023/11/07 09:46:16;;;;;;;;;;;;;;;9.16;100.00;100051.97;4970068;28;20563;-82
2023/11/07 09:48:44;;;;;;;;;;;;;;;9.12;100.00;100062.59;4988348;28;20504;-84
2023/11/07 09:51:14;;;;;;;;;;;;;;;9.22;100.00;100064.38;4969573;28;20514;-84
2023/11/07 09:53:43;;;;;;;;;;;;;;;9.17;100.00;100069.88;4958397;28;19929;-86
2023/11/07 09:56:16;;;;;;;;;;;;;;;9.23;100.00;100070.66;5007850;28;20400;-82
2023/11/07 09:58:51;;;;;;;;;;;;;;;9.23;100.00;100071.44;4973839;28;19929;-89
2023/11/07 10:01:25;;;;;;;;;;;;;;;9.26;100.00;100062.72;4982636;28;19929;-85
2023/11/07 10:03:52;;;;;;;;;;;;;;;9.36;100.00;100072.69;4987289;28;19936;-82
2023/11/07 10:06:26;;;;;;;;;;;;;;;9.41;100.00;100069.13;4974800;28;21263;-90
2023/11/07 10:08:55;;;;;;;;;;;;;;;9.41;100.00;100072.63;4973637;28;19929;-90
2023/11/07 10:11:28;;;;;;;;;;;;;;;9.49;100.00;100076.66;4973840;28;19936;-87
2023/11/07 10:14:02;;;;;;;;;;;;;;;9.53;100.00;100066.81;4977360;28;20665;-85
2023/11/07 10:16:35;;;;;;;;;;;;;;;9.61;100.00;100078.94;4995578;28;20611;-84
2023/11/07 10:19:04;;;;;;;;;;;;;;;9.63;100.00;100077.56;4989382;28;19936;-85
2023/11/07 10:21:33;;;;;;;;;;;;;;;9.64;100.00;100078.38;5010410;28;19930;-83
2023/11/07 10:24:01;;;;;;;;;;;;;;;9.69;100.00;100083.75;4997804;28;19929;-90
2023/11/07 10:26:34;;;;;;;;;;;;;;;9.70;100.00;100088.91;5013802;28;19929;-86
2023/11/07 10:29:13;;;;;;;;;;;;;;;9.73;100.00;100092.16;5007399;28;20481;-85
2023/11/07 10:31:58;;;;;;;;;;;;;;;9.69;100.00;100094.63;5011547;28;19929;-85
2023/11/07 10:34:26;;;;;;;;;;;;;;;9.76;100.00;100089.66;4989637;28;19929;-84
2023/11/07 10:36:55;;;;;;;;;;;;;;;9.74;100.00;100085.63;4998747;28;19949;-89
2023/11/07 10:39:25;;;;;;;;;;;;;;;9.61;100.00;100093.38;5008696;28;19929;-90
2023/11/07 10:41:53;;;;;;;;;;;;;;;9.56;100.00;100087.16;5011815;28;19948;-90
2023/11/07 10:44:29;;;;;;;;;;;;;;;9.53;100.00;100094.00;4990357;28;20278;-90
2023/11/07 10:46:58;;;;;;;;;;;;;;;9.58;100.00;100090.41;5010417;28;19932;-89
2023/11/07 10:49:26;;;;;;;;;;;;;;;9.70;100.00;100098.97;4990606;28;20043;-87
2023/11/07 10:51:54;;;;;;;;;;;;;;;9.84;100.00;100097.16;4997394;28;19921;-82
2023/11/07 10:54:30;;;;;;;;;;;;;;;9.93;100.00;100100.06;4994823;28;19921;-85
2023/11/07 10:57:02;;;;;;;;;;;;;;;9.97;100.00;100092.13;5009048;28;20411;-87
2023/11/07 10:59:40;;;;;;;;;;;;;;;9.98;100.00;100086.41;4989978;28;19929;-88
2023/11/07 11:02:09;;;;;;;;;;;;;;;10.03;100.00;100093.69;4993094;28;19930;-89
2023/11/07 11:04:38;;;;;;;;;;;;;;;9.97;100.00;100087.53;4991490;28;19952;-89
2023/11/07 11:07:07;;;;;;;;;;;;;;;9.98;100.00;100096.47;5008059;28;19925;-88
2023/11/07 11:09:41;;;;;;;;;;;;;;;10.00;100.00;100084.22;4991858;28;20017;-89
2023/11/07 11:12:12;;;;;;;;;;;;;;;10.20;100.00;100079.63;4987107;28;19936;-89
2023/11/07 11:14:41;;;;;;;;;;;;;;;10.25;100.00;100082.28;5004865;28;19929;-85
2023/11/07 11:17:13;;;;;;;;;;;;;;;10.36;100.00;100074.81;5005564;28;19936;-90
2023/11/07 11:19:51;;;;;;;;;;;;;;;10.44;100.00;100082.34;4971097;28;19921;-86
2023/11/07 11:22:21;;;;;;;;;;;;;;;10.53;100.00;100072.38;5007877;28;19929;-88
2023/11/07 11:24:58;;;;;;;;;;;;;;;10.45;100.00;100078.47;4975209;28;20715;-89
2023/11/07 11:27:30;;;;;;;;;;;;;;;10.41;100.00;100069.28;5005771;28;20622;-86
2023/11/07 11:30:05;;;;;;;;;;;;;;;10.30;100.00;100070.50;4972822;28;19929;-88
2023/11/07 11:32:33;;;;;;;;;;;;;;;10.16;100.00;100073.97;4989515;28;19926;-86
2023/11/07 11:35:26;;;;;;;;;;;;;;;10.04;100.00;100077.09;5006219;28;19940;-90
2023/11/07 11:38:10;;;;;;;;;;;;;;;10.02;100.00;100075.78;4990136;28;19929;-90
2023/11/07 11:40:59;;;;;;;;;;;;;;;10.04;100.00;100068.94;4974988;28;19937;-87
2023/11/07 11:43:33;;;;;;;;;;;;;;;10.00;100.00;100078.78;4991729;28;19936;-84
2023/11/07 11:46:26;;;;;;;;;;;;;;;10.04;100.00;100074.38;4993490;28;20286;-85
2023/11/07 11:49:07;;;;;;;;;;;;;;;9.98;100.00;100078.25;4993198;28;19940;-89
2023/11/07 11:51:40;;;;;;;;;;;;;;;10.00;100.00;100086.94;4987492;28;20559;-89
2023/11/07 11:54:09;;;;;;;;;;;;;;;10.04;100.00;100087.97;4945335;28;19929;-89
2023/11/07 11:57:04;;;;;;;;;;;;;;;9.97;100.00;100086.69;4996560;28;20408;-84
2023/11/07 11:59:52;;;;;;;;;;;;;;;9.94;100.00;100073.69;4992392;28;20377;-83
2023/11/07 12:02:36;;;;;;;;;;;;;;;9.96;100.00;100071.50;4990863;28;20300;-87
2023/11/07 12:05:16;;;;;;;;;;;;;;;9.92;100.00;100075.91;4975388;28;19921;-85
2023/11/07 12:07:49;;;;;;;;;;;;;;;9.86;100.00;100070.53;4995289;28;19930;-83
2023/11/07 12:10:21;;;;;;;;;;;;;;;9.92;100.00;100076.69;4988200;28;19929;-83
2023/11/07 12:12:57;;;;;;;;;;;;;;;9.95;100.00;100072.59;5007641;28;21668;-87
2023/11/07 12:15:25;;;;;;;;;;;;;;;9.97;100.00;100071.22;4990466;28;19930;-86
2023/11/07 12:17:53;;;;;;;;;;;;;;;10.00;100.00;100064.38;5012485;28;19941;-86
2023/11/07 12:20:27;;;;;;;;;;;;;;;9.97;100.00;100071.22;4985817;28;19948;-87
2023/11/07 12:22:55;;;;;;;;;;;;;;;9.96;100.00;100056.00;4992377;28;19936;-88
2023/11/07 12:25:23;;;;;;;;;;;;;;;10.00;100.00;100053.53;4986753;28;19929;-85
2023/11/07 12:28:03;;;;;;;;;;;;;;;9.97;100.00;100057.63;5005510;28;21053;-85
2023/11/07 12:30:37;;;;;;;;;;;;;;;10.01;100.00;100050.50;4985840;28;19940;-88
2023/11/07 12:33:10;;;;;;;;;;;;;;;10.03;100.00;100053.72;4991074;28;20004;-87
2023/11/07 12:35:45;;;;;;;;;;;;;;;10.08;100.00;100068.34;4990299;28;20304;-85
2023/11/07 12:38:13;;;;;;;;;;;;;;;10.09;100.00;100059.91;4974318;28;19944;-87
2023/11/07 12:40:48;;;;;;;;;;;;;;;10.11;100.00;100060.44;5005600;28;19929;-84
2023/11/07 12:43:16;;;;;;;;;;;;;;;10.10;100.00;100060.72;5006836;28;20737;-87
2023/11/07 12:45:45;;;;;;;;;;;;;;;10.13;100.00;100063.66;5001964;28;20666;-85
2023/11/07 12:48:13;;;;;;;;;;;;;;;10.13;100.00;100065.56;5009881;28;19925;-89
2023/11/07 12:50:43;;;;;;;;;;;;;;;10.11;100.00;100052.28;5009448;28;19937;-88
2023/11/07 12:53:14;;;;;;;;;;;;;;;10.06;100.00;100060.50;4964709;28;19936;-86
2023/11/07 12:55:50;;;;;;;;;;;;;;;10.08;100.00;100052.88;5004875;28;19925;-88
2023/11/07 12:58:26;;;;;;;;;;;;;;;9.91;100.00;100063.41;5005011;28;19940;-87
2023/11/07 13:00:54;;;;;;;;;;;;;;;9.81;100.00;100064.34;5011186;28;19936;-85
2023/11/07 13:03:23;;;;;;;;;;;;;;;9.78;100.00;100057.56;4989496;28;19929;-85